Time;durP1;ratioP1;P1;durP2;ratioP2;P2;SDS_P1;SDS_P2;PMS_P1;PMS_P2;Temp;Humidity;BMP_temperature;BMP_pressure;BME280_temperature;BME280_humidity;BME280_pressure;Samples;Min_cycle;Max_cycle;Signal;HPM_P1;HPM_P2
2021/06/23 00:01:59;;;;;;;1999.90;999.90;;;13.20;99.90;;;;;;6126047;23;20143;-47
2021/06/23 00:04:26;;;;;;;1999.90;999.90;;;13.10;99.90;;;;;;6126173;23;20151;-46
2021/06/23 00:06:53;;;;;;;1999.90;999.90;;;13.10;99.90;;;;;;6125981;23;20147;-44
2021/06/23 00:09:20;;;;;;;1999.90;999.90;;;13.10;99.90;;;;;;6126104;23;20487;-44
2021/06/23 00:11:50;;;;;;;1999.90;999.90;;;13.10;99.90;;;;;;6126166;23;20179;-44
2021/06/23 00:14:17;;;;;;;1999.90;999.90;;;13.10;99.90;;;;;;6126056;23;20474;-45
2021/06/23 00:16:45;;;;;;;1999.90;999.90;;;13.10;99.90;;;;;;6126087;23;20155;-44
2021/06/23 00:19:12;;;;;;;1999.90;999.90;;;13.10;99.90;;;;;;6125791;23;20166;-44
2021/06/23 00:21:39;;;;;;;1999.90;999.90;;;13.10;99.90;;;;;;6126027;23;20174;-44
2021/06/23 00:24:06;;;;;;;1999.90;999.90;;;13.10;99.90;;;;;;6125920;23;20198;-44
2021/06/23 00:26:36;;;;;;;1999.90;999.90;;;13.10;99.90;;;;;;6125977;23;20154;-44
2021/06/23 00:29:05;;;;;;;1999.90;999.90;;;13.10;99.90;;;;;;6125828;23;20158;-44
2021/06/23 00:31:33;;;;;;;1999.90;999.90;;;13.20;99.90;;;;;;6099978;23;20186;-45
2021/06/23 00:34:03;;;;;;;1999.90;999.90;;;13.20;99.90;;;;;;6125926;23;20151;-45
2021/06/23 00:36:30;;;;;;;1999.90;999.90;;;13.20;99.90;;;;;;6125773;23;20241;-46
2021/06/23 00:38:56;;;;;;;1999.90;999.90;;;13.20;99.90;;;;;;6125910;23;20148;-44
2021/06/23 00:41:23;;;;;;;1999.90;999.90;;;13.20;99.90;;;;;;6126772;23;20587;-45
2021/06/23 00:43:50;;;;;;;1999.90;999.90;;;13.20;99.90;;;;;;6127872;23;20155;-45
2021/06/23 00:46:18;;;;;;;1999.90;999.90;;;13.20;99.90;;;;;;6127682;23;20207;-44
2021/06/23 00:48:44;;;;;;;1999.90;999.90;;;13.20;99.90;;;;;;6127779;23;20151;-45
2021/06/23 00:51:14;;;;;;;1999.90;999.90;;;13.20;99.90;;;;;;6127683;23;20706;-47
2021/06/23 00:53:41;;;;;;;1999.90;999.90;;;13.20;99.90;;;;;;6127515;23;20183;-45
2021/06/23 00:56:08;;;;;;;1999.90;999.90;;;13.30;99.90;;;;;;6127806;23;20147;-45
2021/06/23 00:58:35;;;;;;;1999.90;999.90;;;13.20;99.90;;;;;;6127718;23;20148;-45
2021/06/23 01:01:02;;;;;;;1999.90;999.90;;;13.30;99.90;;;;;;6127694;23;20152;-44
2021/06/23 01:03:29;;;;;;;1999.90;999.90;;;13.30;99.90;;;;;;6127672;23;20183;-45
2021/06/23 01:05:56;;;;;;;1999.90;999.90;;;13.30;99.90;;;;;;6127636;23;20147;-45
2021/06/23 01:08:23;;;;;;;1999.90;999.90;;;13.30;99.90;;;;;;6127791;23;20662;-46
2021/06/23 01:10:50;;;;;;;1999.90;999.90;;;13.40;99.90;;;;;;6127514;23;20217;-48
2021/06/23 01:13:37;;;;;;;1999.90;999.90;;;13.40;99.90;;;;;;6127600;23;20178;-47
2021/06/23 01:16:06;;;;;;;1999.90;999.90;;;13.40;99.90;;;;;;6127411;23;20142;-45
2021/06/23 01:18:35;;;;;;;1999.90;999.90;;;13.50;99.90;;;;;;6127400;23;20190;-45
2021/06/23 01:21:03;;;;;;;1999.90;999.90;;;13.50;99.90;;;;;;6127678;23;20155;-45
2021/06/23 01:23:29;;;;;;;1999.90;999.90;;;13.50;99.90;;;;;;6127524;23;20587;-47
2021/06/23 01:25:56;;;;;;;1999.90;999.90;;;13.50;99.90;;;;;;6127661;23;20147;-45
2021/06/23 01:28:23;;;;;;;1999.90;999.90;;;13.50;99.90;;;;;;6127555;23;20501;-47
2021/06/23 01:30:50;;;;;;;1999.90;999.90;;;13.60;99.90;;;;;;6101406;23;20565;-45
2021/06/23 01:33:17;;;;;;;1999.90;999.90;;;13.60;99.90;;;;;;6127405;23;20144;-47
2021/06/23 01:35:48;;;;;;;1999.90;999.90;;;13.60;99.90;;;;;;6127440;23;20155;-45
2021/06/23 01:38:15;;;;;;;1999.90;999.90;;;13.60;99.90;;;;;;6127339;23;20441;-45
2021/06/23 01:40:42;;;;;;;1999.90;999.90;;;13.60;99.90;;;;;;6127203;23;20210;-45
2021/06/23 01:43:11;;;;;;;1999.90;999.90;;;13.60;99.90;;;;;;6127407;23;20223;-45
2021/06/23 01:45:38;;;;;;;1999.90;999.90;;;13.60;99.90;;;;;;6127283;23;20148;-44
2021/06/23 01:48:07;;;;;;;1999.90;999.90;;;13.60;99.90;;;;;;6127141;23;20471;-45
2021/06/23 01:50:34;;;;;;;1999.90;999.90;;;13.60;99.90;;;;;;6127166;23;20175;-45
2021/06/23 01:53:00;;;;;;;1999.90;999.90;;;13.60;99.90;;;;;;6126425;23;20171;-45
2021/06/23 01:55:28;;;;;;;1999.90;999.90;;;13.60;99.90;;;;;;6127267;23;20159;-44
2021/06/23 01:58:07;;;;;;;1999.90;999.90;;;13.60;99.90;;;;;;6127373;23;20155;-44
2021/06/23 02:00:42;;;;;;;1999.90;999.90;;;13.60;99.90;;;;;;6127213;23;20194;-45
2021/06/23 02:03:34;;;;;;;1999.90;999.90;;;13.60;99.90;;;;;;6127444;23;20476;-45
2021/06/23 02:06:16;;;;;;;1999.90;999.90;;;13.60;99.90;;;;;;6075673;23;20159;-49
2021/06/23 02:08:52;;;;;;;1999.90;999.90;;;13.60;99.90;;;;;;6127154;23;20149;-45
2021/06/23 02:11:45;;;;;;;1999.90;999.90;;;13.60;99.90;;;;;;6127126;23;20233;-45
2021/06/23 02:14:40;;;;;;;1999.90;999.90;;;13.60;99.90;;;;;;6127119;23;20483;-45
2021/06/23 02:17:10;;;;;;;1999.90;999.90;;;13.60;99.90;;;;;;6126923;23;20522;-45
2021/06/23 02:19:45;;;;;;;1999.90;999.90;;;13.60;99.90;;;;;;6126859;23;20155;-45
2021/06/23 02:22:18;;;;;;;1999.90;999.90;;;13.60;99.90;;;;;;6127070;23;20290;-45
2021/06/23 02:24:46;;;;;;;1999.90;999.90;;;13.60;99.90;;;;;;6126974;23;20138;-45
2021/06/23 02:27:14;;;;;;;1999.90;999.90;;;13.50;99.90;;;;;;6126899;23;20230;-45
2021/06/23 02:29:41;;;;;;;1999.90;999.90;;;13.60;99.90;;;;;;6126851;23;20216;-45
2021/06/23 02:32:14;;;;;;;1999.90;999.90;;;13.60;99.90;;;;;;6126817;23;20263;-45
2021/06/23 02:34:42;;;;;;;1999.90;999.90;;;13.60;99.90;;;;;;6126935;23;20163;-48
2021/06/23 02:37:10;;;;;;;1999.90;999.90;;;13.50;99.90;;;;;;6126532;23;20155;-45
2021/06/23 02:39:38;;;;;;;1999.90;999.90;;;13.50;99.90;;;;;;6126294;23;20206;-45
2021/06/23 02:42:07;;;;;;;1999.90;999.90;;;13.50;99.90;;;;;;6100428;23;20486;-45
2021/06/23 02:44:34;;;;;;;1999.90;999.90;;;13.50;99.90;;;;;;6126732;23;20147;-45
2021/06/23 02:47:01;;;;;;;1999.90;999.90;;;13.50;99.90;;;;;;6126768;23;20183;-46
2021/06/23 02:49:28;;;;;;;1999.90;999.90;;;13.50;99.90;;;;;;6126561;23;20171;-45
2021/06/23 02:51:57;;;;;;;1999.90;999.90;;;13.50;99.90;;;;;;6126655;23;20151;-45
2021/06/23 02:54:25;;;;;;;1999.90;999.90;;;13.50;99.90;;;;;;6126441;23;20642;-45
2021/06/23 02:56:53;;;;;;;1999.90;999.90;;;13.50;99.90;;;;;;6126579;23;20594;-45
2021/06/23 02:59:20;;;;;;;1999.90;999.90;;;13.40;99.90;;;;;;6126602;23;20169;-45
2021/06/23 03:01:51;;;;;;;1999.90;999.90;;;13.40;99.90;;;;;;6126477;23;20182;-45
2021/06/23 03:04:17;;;;;;;1999.90;999.90;;;13.30;99.90;;;;;;6126425;23;20222;-47
2021/06/23 03:06:44;;;;;;;1999.90;999.90;;;13.30;99.90;;;;;;6126532;23;20155;-44
2021/06/23 03:09:11;;;;;;;1999.90;999.90;;;13.20;99.90;;;;;;6126418;23;20154;-45
2021/06/23 03:11:40;;;;;;;1999.90;999.90;;;13.10;99.90;;;;;;6126445;23;20155;-45
2021/06/23 03:14:08;;;;;;;1999.90;999.90;;;13.10;99.90;;;;;;6126511;23;20586;-45
2021/06/23 03:16:36;;;;;;;1999.90;999.90;;;13.10;99.90;;;;;;6126587;23;20634;-45
2021/06/23 03:19:05;;;;;;;1999.90;999.90;;;13.10;99.90;;;;;;6126535;23;20181;-45
2021/06/23 03:21:32;;;;;;;1999.90;999.90;;;13.10;99.90;;;;;;6126676;23;20235;-45
2021/06/23 03:23:59;;;;;;;1999.90;999.90;;;13.20;99.90;;;;;;6126362;23;20165;-45
2021/06/23 03:26:28;;;;;;;1999.90;999.90;;;13.20;99.90;;;;;;6126236;23;20148;-45
2021/06/23 03:28:55;;;;;;;1999.90;999.90;;;13.20;99.90;;;;;;6126182;23;20151;-46
2021/06/23 03:31:22;;;;;;;1999.90;999.90;;;13.30;99.90;;;;;;6126164;23;20314;-47
2021/06/23 03:33:51;;;;;;;1999.90;999.90;;;13.30;99.90;;;;;;6126310;23;20219;-47
2021/06/23 03:36:18;;;;;;;1999.90;999.90;;;13.30;99.90;;;;;;6100193;23;20164;-45
2021/06/23 03:38:45;;;;;;;1999.90;999.90;;;13.30;99.90;;;;;;6126232;23;20145;-45
2021/06/23 03:41:12;;;;;;;1999.90;999.90;;;13.40;99.90;;;;;;6126153;23;20153;-46
2021/06/23 03:43:39;;;;;;;1999.90;999.90;;;13.40;99.90;;;;;;6126163;23;20148;-46
2021/06/23 03:46:06;;;;;;;1999.90;999.90;;;13.30;99.90;;;;;;6126311;23;20143;-45
2021/06/23 03:48:33;;;;;;;1999.90;999.90;;;13.30;99.90;;;;;;6126019;23;20642;-45
2021/06/23 03:50:59;;;;;;;1999.90;999.90;;;13.30;99.90;;;;;;6126033;23;20525;-45
2021/06/23 03:53:26;;;;;;;1999.90;999.90;;;13.30;99.90;;;;;;6125915;23;20179;-45
2021/06/23 03:55:53;;;;;;;1999.90;999.90;;;13.30;99.90;;;;;;6126054;23;20455;-47
2021/06/23 03:58:20;;;;;;;1999.90;999.90;;;13.40;99.90;;;;;;6126061;23;20151;-46
2021/06/23 04:00:47;;;;;;;1999.90;999.90;;;13.40;99.90;;;;;;6125933;23;20147;-45
2021/06/23 04:03:13;;;;;;;1999.90;999.90;;;13.40;99.90;;;;;;6125945;23;20147;-45
2021/06/23 04:05:40;;;;;;;1999.90;999.90;;;13.40;99.90;;;;;;6126110;23;20155;-45
2021/06/23 04:08:07;;;;;;;1999.90;999.90;;;13.40;99.90;;;;;;6126090;23;20147;-45
2021/06/23 04:10:34;;;;;;;1999.90;999.90;;;13.40;99.90;;;;;;6125919;23;20179;-45
2021/06/23 04:13:01;;;;;;;1999.90;999.90;;;13.40;99.90;;;;;;6125977;23;20147;-47
2021/06/23 04:15:28;;;;;;;1999.90;999.90;;;13.40;99.90;;;;;;6125750;23;20655;-48
2021/06/23 04:17:54;;;;;;;1999.90;999.90;;;13.40;99.90;;;;;;6125902;23;20147;-49
2021/06/23 04:20:21;;;;;;;1999.90;999.90;;;13.40;99.90;;;;;;6125893;23;20163;-48
2021/06/23 04:22:48;;;;;;;1999.90;999.90;;;13.40;99.90;;;;;;6126106;23;20147;-50
2021/06/23 04:25:15;;;;;;;1999.90;999.90;;;13.40;99.90;;;;;;6125846;23;20230;-45
2021/06/23 04:27:42;;;;;;;1999.90;999.90;;;13.40;99.90;;;;;;6126117;23;20143;-47
2021/06/23 04:30:11;;;;;;;1999.90;999.90;;;13.40;99.90;;;;;;6125950;23;20517;-45
2021/06/23 04:32:38;;;;;;;1999.90;999.90;;;13.40;99.90;;;;;;6126018;23;20144;-46
2021/06/23 04:35:07;;;;;;;1999.90;999.90;;;13.50;99.90;;;;;;6125940;23;20162;-46
2021/06/23 04:37:39;;;;;;;1999.90;999.90;;;13.50;99.90;;;;;;6125729;23;20234;-47
2021/06/23 04:40:09;;;;;;;1999.90;999.90;;;13.50;99.90;;;;;;6125782;23;20478;-47
2021/06/23 04:42:37;;;;;;;1999.90;999.90;;;13.50;99.90;;;;;;6125567;23;20159;-48
2021/06/23 04:45:07;;;;;;;1999.90;999.90;;;13.40;99.90;;;;;;6125831;23;20156;-46
2021/06/23 04:47:37;;;;;;;1999.90;999.90;;;13.50;99.90;;;;;;6125824;23;20772;-46
2021/06/23 04:50:08;;;;;;;1999.90;999.90;;;13.50;99.90;;;;;;6125708;23;20187;-48
2021/06/23 04:52:36;;;;;;;1999.90;999.90;;;13.50;99.90;;;;;;6125756;23;20140;-48
2021/06/23 04:55:04;;;;;;;1999.90;999.90;;;13.40;99.90;;;;;;6125575;23;20559;-46
2021/06/23 04:57:31;;;;;;;1999.90;999.90;;;13.40;99.90;;;;;;6125686;23;20148;-48
2021/06/23 04:59:58;;;;;;;1999.90;999.90;;;13.30;99.90;;;;;;6125655;23;20155;-46
2021/06/23 05:02:25;;;;;;;1999.90;999.90;;;13.30;99.90;;;;;;6125745;23;20148;-47
2021/06/23 05:04:52;;;;;;;1999.90;999.90;;;13.30;99.90;;;;;;6125613;23;20207;-48
2021/06/23 05:07:19;;;;;;;1999.90;999.90;;;13.20;99.90;;;;;;6125807;23;20151;-51
2021/06/23 05:09:46;;;;;;;1999.90;999.90;;;13.30;99.90;;;;;;6125527;23;20242;-47
2021/06/23 05:12:14;;;;;;;1999.90;999.90;;;13.30;99.90;;;;;;6125677;23;20204;-47
2021/06/23 05:14:40;;;;;;;1999.90;999.90;;;13.30;99.90;;;;;;6125482;23;20214;-48
2021/06/23 05:17:07;;;;;;;1999.90;999.90;;;13.30;99.90;;;;;;6125679;23;20150;-46
2021/06/23 05:19:37;;;;;;;1999.90;999.90;;;13.40;99.90;;;;;;6125625;23;20154;-46
2021/06/23 05:22:05;;;;;;;1999.90;999.90;;;13.40;99.90;;;;;;6125725;23;20238;-47
2021/06/23 05:24:32;;;;;;;1999.90;999.90;;;13.40;99.90;;;;;;6125556;23;20494;-46
2021/06/23 05:27:00;;;;;;;1999.90;999.90;;;13.40;99.90;;;;;;6126018;23;20154;-46
2021/06/23 05:29:27;;;;;;;1999.90;999.90;;;13.40;99.90;;;;;;6127267;23;20178;-47
2021/06/23 05:31:53;;;;;;;1999.90;999.90;;;13.40;99.90;;;;;;6127007;23;20159;-48
2021/06/23 05:34:20;;;;;;;1999.90;999.90;;;13.40;99.90;;;;;;6126910;23;20159;-47
2021/06/23 05:36:47;;;;;;;1999.90;999.90;;;13.40;99.90;;;;;;6127093;23;20583;-48
2021/06/23 05:39:14;;;;;;;1999.90;999.90;;;13.40;99.90;;;;;;6127096;23;20151;-49
2021/06/23 05:41:41;;;;;;;1999.90;999.90;;;13.40;99.90;;;;;;6126963;23;20147;-48
2021/06/23 05:44:08;;;;;;;1999.90;999.90;;;13.40;99.90;;;;;;6126975;23;20158;-47
2021/06/23 05:46:34;;;;;;;1999.90;999.90;;;13.40;99.90;;;;;;6127003;23;20147;-48
2021/06/23 05:49:01;;;;;;;1999.90;999.90;;;13.40;99.90;;;;;;6127100;23;20147;-48
2021/06/23 05:51:28;;;;;;;1999.90;999.90;;;13.40;99.90;;;;;;6126952;23;20264;-47
2021/06/23 05:53:55;;;;;;;1999.90;999.90;;;13.40;99.90;;;;;;6126888;23;20217;-46
2021/06/23 05:56:22;;;;;;;1999.90;999.90;;;13.40;99.90;;;;;;6126951;23;20151;-47
2021/06/23 05:58:48;;;;;;;1999.90;999.90;;;13.40;99.90;;;;;;6126966;23;20147;-48
2021/06/23 06:01:15;;;;;;;1999.90;999.90;;;13.30;99.90;;;;;;6127120;23;20147;-47
2021/06/23 06:03:42;;;;;;;1999.90;999.90;;;13.40;99.90;;;;;;6126650;23;20243;-47
2021/06/23 06:06:09;;;;;;;1999.90;999.90;;;13.40;99.90;;;;;;6126997;23;20157;-44
2021/06/23 06:08:36;;;;;;;1999.90;999.90;;;13.50;99.90;;;;;;6126862;23;20201;-55
2021/06/23 06:11:03;;;;;;;1999.90;999.90;;;13.60;99.90;;;;;;6126479;23;20515;-45
2021/06/23 06:13:30;;;;;;;1999.90;999.90;;;13.70;99.90;;;;;;6126748;23;20155;-48
2021/06/23 06:15:57;;;;;;;1999.90;999.90;;;13.80;99.90;;;;;;6126739;23;20151;-46
2021/06/23 06:18:25;;;;;;;1999.90;999.90;;;13.70;99.90;;;;;;6126734;23;20147;-42
2021/06/23 06:20:58;;;;;;;1999.90;999.90;;;13.80;99.90;;;;;;6123363;23;20158;-42
2021/06/23 06:23:25;;;;;;;1999.90;999.90;;;13.90;99.90;;;;;;6126041;23;20530;-56
2021/06/23 06:25:53;;;;;;;1999.90;999.90;;;13.90;99.90;;;;;;6126320;23;20144;-42
2021/06/23 06:28:20;;;;;;;1999.90;999.90;;;14.00;99.90;;;;;;6125457;23;20486;-56
2021/06/23 06:30:47;;;;;;;1999.90;999.90;;;14.00;99.90;;;;;;6125684;23;20186;-61
2021/06/23 06:33:14;;;;;;;1999.90;999.90;;;14.00;99.90;;;;;;6125716;23;20144;-56
2021/06/23 06:35:41;;;;;;;1999.90;999.90;;;14.00;99.90;;;;;;6125826;23;20155;-61
2021/06/23 06:38:08;;;;;;;1999.90;999.90;;;13.90;99.90;;;;;;6125460;23;20483;-52
2021/06/23 06:40:35;;;;;;;1999.90;999.90;;;14.20;99.90;;;;;;6125567;23;20496;-60
2021/06/23 06:43:01;;;;;;;1999.90;999.90;;;14.70;99.90;;;;;;6125828;23;20148;-52
2021/06/23 06:45:28;;;;;;;1999.90;999.90;;;15.00;99.90;;;;;;6125477;23;20151;-50
2021/06/23 06:47:55;;;;;;;1999.90;999.90;;;14.90;99.90;;;;;;6125944;23;20150;-57
2021/06/23 06:50:22;;;;;;;1999.90;999.90;;;14.70;99.90;;;;;;6099800;23;20234;-64
2021/06/23 06:52:49;;;;;;;1999.90;999.90;;;14.70;99.90;;;;;;6126022;23;20152;-58
2021/06/23 06:55:21;;;;;;;1999.90;999.90;;;14.70;99.90;;;;;;6125896;23;20177;-57
2021/06/23 06:57:55;;;;;;;1999.90;999.90;;;14.60;99.90;;;;;;6125724;23;20226;-57
2021/06/23 07:00:23;;;;;;;1999.90;999.90;;;14.60;99.90;;;;;;6125761;23;20570;-54
2021/06/23 07:02:55;;;;;;;1999.90;999.90;;;14.60;99.90;;;;;;6097035;23;20277;-53
2021/06/23 07:05:25;;;;;;;1999.90;999.90;;;14.60;99.90;;;;;;6096408;23;20486;-56
2021/06/23 07:07:52;;;;;;;1999.90;999.90;;;14.60;99.90;;;;;;6097373;23;20147;-53
2021/06/23 07:10:19;;;;;;;1999.90;999.90;;;14.70;99.90;;;;;;6096709;23;20207;-56
2021/06/23 07:12:46;;;;;;;1999.90;999.90;;;14.70;99.90;;;;;;6096482;23;20156;-54
2021/06/23 07:15:14;;;;;;;1999.90;999.90;;;14.70;99.90;;;;;;6096254;23;20203;-52
2021/06/23 07:17:41;;;;;;;1999.90;999.90;;;14.70;99.90;;;;;;6096479;23;20148;-57
2021/06/23 07:20:09;;;;;;;1999.90;999.90;;;14.80;99.90;;;;;;6096356;23;20175;-46
2021/06/23 07:22:36;;;;;;;1999.90;999.90;;;14.80;99.90;;;;;;6096068;23;20572;-57
2021/06/23 07:25:04;;;;;;;1999.90;999.90;;;14.80;99.90;;;;;;6096157;23;20163;-44
2021/06/23 07:27:31;;;;;;;1999.90;999.90;;;14.80;99.90;;;;;;6096418;23;20150;-44
2021/06/23 07:29:57;;;;;;;1999.90;999.90;;;14.70;99.90;;;;;;6096652;23;20187;-45
2021/06/23 07:32:28;;;;;;;1999.90;999.90;;;14.70;99.90;;;;;;6096187;23;20159;-48
2021/06/23 07:37:41;;;;;;;1999.90;999.90;;;14.70;99.90;;;;;;6096753;23;20656;-57
2021/06/23 07:40:09;;;;;;;1999.90;999.90;;;15.00;99.90;;;;;;6098052;23;20175;-43
2021/06/23 07:42:36;;;;;;;1999.90;999.90;;;15.10;99.90;;;;;;6096919;23;20260;-50
2021/06/23 07:45:04;;;;;;;1999.90;999.90;;;15.20;99.90;;;;;;6070418;23;20519;-44
2021/06/23 07:47:36;;;;;;;1999.90;999.90;;;15.10;99.90;;;;;;6096488;23;20182;-46
2021/06/23 07:50:05;;;;;;;1999.90;999.90;;;14.90;99.90;;;;;;6095590;23;20222;-45
2021/06/23 07:52:42;;;;;;;1999.90;999.90;;;14.70;99.90;;;;;;6095656;23;20148;-54
2021/06/23 07:55:43;;;;;;;1999.90;999.90;;;14.70;99.90;;;;;;6095247;23;20574;-61
2021/06/23 08:01:38;;;;;;;1999.90;999.90;;;14.60;99.90;;;;;;6095971;23;20283;-53
2021/06/23 08:09:47;;;;;;;1999.90;999.90;;;14.70;99.90;;;;;;6035702;23;20297;-59
2021/06/23 08:14:41;;;;;;;1999.90;999.90;;;14.70;99.90;;;;;;6096153;23;20226;-48
2021/06/23 08:17:08;;;;;;;1999.90;999.90;;;14.80;99.90;;;;;;6095660;23;20167;-58
2021/06/23 08:19:35;;;;;;;1999.90;999.90;;;15.10;99.90;;;;;;6095892;23;20155;-53
2021/06/23 08:22:01;;;;;;;1999.90;999.90;;;15.00;99.90;;;;;;6095869;23;20152;-49
2021/06/23 08:24:28;;;;;;;1999.90;999.90;;;15.00;99.90;;;;;;6095981;23;20171;-45
2021/06/23 08:26:55;;;;;;;1999.90;999.90;;;15.20;99.90;;;;;;6095718;23;20148;-48
2021/06/23 08:29:22;;;;;;;1999.90;999.90;;;15.10;99.90;;;;;;6095842;23;20164;-51
2021/06/23 08:31:48;;;;;;;1999.90;999.90;;;15.00;99.90;;;;;;6095823;23;20181;-57
2021/06/23 08:34:15;;;;;;;1999.90;999.90;;;14.90;99.90;;;;;;6095771;23;20177;-43
2021/06/23 08:36:42;;;;;;;1999.90;999.90;;;14.80;99.90;;;;;;6095862;23;20159;-49
2021/06/23 08:39:09;;;;;;;1999.90;999.90;;;14.80;99.90;;;;;;6096091;23;20192;-44
2021/06/23 08:41:37;;;;;;;1999.90;999.90;;;14.70;99.90;;;;;;6095642;23;20158;-48
2021/06/23 08:44:04;;;;;;;1999.90;999.90;;;14.80;99.90;;;;;;6095716;23;20156;-47
2021/06/23 08:46:31;;;;;;;1999.90;999.90;;;14.70;99.90;;;;;;6095570;23;20178;-46
2021/06/23 08:49:01;;;;;;;1999.90;999.90;;;14.80;99.90;;;;;;6095666;23;20150;-45
2021/06/23 08:51:29;;;;;;;1999.90;999.90;;;14.90;99.90;;;;;;6095385;23;20597;-45
2021/06/23 08:53:55;;;;;;;1999.90;999.90;;;15.40;99.90;;;;;;6095346;23;20194;-46
2021/06/23 08:56:22;;;;;;;1999.90;999.90;;;15.60;99.90;;;;;;6095392;23;20168;-44
2021/06/23 08:58:49;;;;;;;1999.90;999.90;;;15.70;99.90;;;;;;6095565;23;20235;-46
2021/06/23 09:01:16;;;;;;;1999.90;999.90;;;15.70;99.90;;;;;;6095274;23;20643;-54
2021/06/23 09:04:06;;;;;;;1999.90;999.90;;;15.70;99.90;;;;;;6097030;23;20175;-55
2021/06/23 09:06:48;;;;;;;1999.90;999.90;;;15.80;99.90;;;;;;6097025;23;20152;-50
2021/06/23 09:09:24;;;;;;;1999.90;999.90;;;15.90;99.90;;;;;;6097136;23;20144;-48
2021/06/23 09:11:59;;;;;;;1999.90;999.90;;;15.90;99.90;;;;;;6097253;23;20223;-45
2021/06/23 09:14:29;;;;;;;1999.90;999.90;;;16.00;99.90;;;;;;6097303;23;20136;-56
2021/06/23 09:17:06;;;;;;;1999.90;999.90;;;16.00;99.90;;;;;;6097706;23;20394;-49
2021/06/23 09:19:35;;;;;;;1999.90;999.90;;;16.00;99.90;;;;;;6097676;23;20148;-51
2021/06/23 09:22:04;;;;;;;1999.90;999.90;;;16.00;99.90;;;;;;6097300;23;20180;-50
2021/06/23 09:24:42;;;;;;;1999.90;999.90;;;16.10;99.90;;;;;;6097663;23;20152;-51
2021/06/23 09:27:19;;;;;;;1999.90;999.90;;;16.10;99.90;;;;;;6095519;23;20162;-58
2021/06/23 09:29:47;;;;;;;1999.90;999.90;;;16.20;99.90;;;;;;6093018;23;20174;-51
2021/06/23 09:32:14;;;;;;;1999.90;999.90;;;16.40;99.90;;;;;;6094343;23;20579;-58
2021/06/23 09:34:43;;;;;;;1999.90;999.90;;;16.30;99.90;;;;;;6096553;23;20174;-58
2021/06/23 09:37:34;;;;;;;1999.90;999.90;;;16.20;99.90;;;;;;6096470;23;20251;-58
2021/06/23 09:40:11;;;;;;;1999.90;999.90;;;16.20;99.90;;;;;;6097070;23;20579;-59
2021/06/23 09:42:43;;;;;;;1999.90;999.90;;;16.20;99.90;;;;;;6096461;23;20155;-56
2021/06/23 09:45:12;;;;;;;1999.90;999.90;;;16.20;99.90;;;;;;6096457;23;20207;-54
2021/06/23 09:47:40;;;;;;;1999.90;999.90;;;16.10;99.90;;;;;;6094885;23;20631;-56
2021/06/23 09:50:11;;;;;;;1999.90;999.90;;;16.10;99.90;;;;;;6097002;23;20175;-50
2021/06/23 09:52:51;;;;;;;1999.90;999.90;;;16.20;99.90;;;;;;6096619;23;20141;-55
2021/06/23 09:55:18;;;;;;;1999.90;999.90;;;16.20;99.90;;;;;;6068181;23;20157;-58
2021/06/23 09:58:11;;;;;;;1999.90;999.90;;;16.50;99.90;;;;;;6068127;23;20474;-59
2021/06/23 10:01:01;;;;;;;1999.90;999.90;;;16.70;99.90;;;;;;6068531;23;20518;-46
2021/06/23 10:03:30;;;;;;;1999.90;999.90;;;16.80;99.90;;;;;;6068108;23;20168;-47
2021/06/23 10:05:58;;;;;;;1999.90;999.90;;;17.00;99.90;;;;;;6068067;23;20168;-50
2021/06/23 10:08:27;;;;;;;1999.90;999.90;;;17.10;99.90;;;;;;6068163;23;20149;-52
2021/06/23 10:10:55;;;;;;;1999.90;999.90;;;17.20;99.90;;;;;;6068139;23;20191;-47
2021/06/23 10:13:22;;;;;;;1999.90;999.90;;;17.30;99.90;;;;;;6067802;23;20156;-53
2021/06/23 10:15:50;;;;;;;1999.90;999.90;;;17.40;99.90;;;;;;6068119;23;20152;-51
2021/06/23 10:18:20;;;;;;;1999.90;999.90;;;17.60;99.90;;;;;;6068031;23;20156;-49
2021/06/23 10:20:48;;;;;;;1999.90;999.90;;;17.70;99.90;;;;;;6068153;23;20474;-50
2021/06/23 10:23:16;;;;;;;1999.90;999.90;;;17.70;99.90;;;;;;6067838;23;20184;-59
2021/06/23 10:25:43;;;;;;;1999.90;999.90;;;17.80;99.90;;;;;;6068268;23;20149;-58
2021/06/23 10:28:11;;;;;;;1999.90;999.90;;;17.50;99.90;;;;;;6042797;23;20490;-50
2021/06/23 10:30:38;;;;;;;1999.90;999.90;;;17.30;99.90;;;;;;6067877;23;20192;-59
2021/06/23 10:33:05;;;;;;;1999.90;999.90;;;17.20;99.90;;;;;;6067917;23;20201;-54
2021/06/23 10:35:32;;;;;;;1999.90;999.90;;;17.00;99.90;;;;;;6067657;23;20718;-44
2021/06/23 10:38:00;;;;;;;1999.90;999.90;;;17.10;99.90;;;;;;6067946;23;20199;-47
2021/06/23 10:40:28;;;;;;;1999.90;999.90;;;17.00;99.90;;;;;;6067980;23;20180;-45
2021/06/23 10:43:14;;;;;;;1999.90;999.90;;;17.00;99.90;;;;;;6067937;23;20157;-45
2021/06/23 10:45:45;;;;;;;1999.90;999.90;;;17.20;99.90;;;;;;6068420;23;20144;-48
2021/06/23 10:48:12;;;;;;;1999.90;999.90;;;17.40;99.90;;;;;;6068221;23;20183;-50
2021/06/23 10:50:40;;;;;;;1999.90;999.90;;;17.40;99.90;;;;;;6068114;23;20184;-44
2021/06/23 10:53:36;;;;;;;1999.90;999.90;;;17.40;99.90;;;;;;6071938;23;20508;-52
2021/06/23 10:56:05;;;;;;;1999.90;999.90;;;17.70;99.90;;;;;;6094225;23;20163;-46
2021/06/23 10:58:34;;;;;;;1999.90;999.90;;;17.90;99.90;;;;;;6096326;23;20215;-45
2021/06/23 11:01:11;;;;;;;1999.90;999.90;;;17.80;99.90;;;;;;6096737;23;20155;-46
2021/06/23 11:04:12;;;;;;;1999.90;999.90;;;17.80;99.90;;;;;;6096178;23;21014;-45
2021/06/23 11:06:45;;;;;;;1999.90;999.90;;;17.50;99.90;;;;;;5980392;24;20157;-60
2021/06/23 11:09:28;;;;;;;1999.90;999.90;;;17.10;99.90;;;;;;6078481;23;20171;-54
2021/06/23 11:11:56;;;;;;;1999.90;999.90;;;16.90;99.90;;;;;;6095061;23;20489;-53
2021/06/23 11:14:26;;;;;;;1999.90;999.90;;;16.40;99.90;;;;;;6093334;23;20148;-53
2021/06/23 11:16:53;;;;;;;1999.90;999.90;;;15.90;99.90;;;;;;6095398;23;20203;-54
2021/06/23 11:19:20;;;;;;;1999.90;999.90;;;15.30;99.90;;;;;;6095491;23;20248;-51
2021/06/23 11:21:47;;;;;;;1999.90;999.90;;;14.80;99.90;;;;;;6093528;23;20158;-59
2021/06/23 11:24:16;;;;;;;1999.90;999.90;;;14.50;99.90;;;;;;6095945;23;20622;-55
2021/06/23 11:26:54;;;;;;;1999.90;999.90;;;14.30;99.90;;;;;;6096116;23;20152;-49
2021/06/23 11:29:22;;;;;;;1999.90;999.90;;;14.30;99.90;;;;;;6096112;23;20470;-56
2021/06/23 11:31:53;;;;;;;1999.90;999.90;;;14.50;99.90;;;;;;6096536;23;20182;-56
2021/06/23 11:34:43;;;;;;;1999.90;999.90;;;14.60;99.90;;;;;;6096183;23;20140;-54
2021/06/23 11:37:23;;;;;;;1999.90;999.90;;;14.60;99.90;;;;;;6096368;23;20189;-57
2021/06/23 11:39:51;;;;;;;1999.90;999.90;;;14.70;99.90;;;;;;6095944;23;20198;-54
2021/06/23 11:42:19;;;;;;;1999.90;999.90;;;14.90;99.90;;;;;;6096383;23;20479;-46
2021/06/23 11:44:45;;;;;;;1999.90;999.90;;;14.90;99.90;;;;;;6096645;23;20148;-45
2021/06/23 11:47:12;;;;;;;1999.90;999.90;;;14.90;99.90;;;;;;6096689;23;20176;-44
2021/06/23 11:49:40;;;;;;;1999.90;999.90;;;15.10;99.90;;;;;;6096313;23;20572;-52
2021/06/23 11:52:08;;;;;;;1999.90;999.90;;;15.20;99.90;;;;;;6094553;23;20231;-59
2021/06/23 11:54:35;;;;;;;1999.90;999.90;;;15.40;99.90;;;;;;6094455;23;20218;-57
2021/06/23 11:57:02;;;;;;;1999.90;999.90;;;15.50;99.90;;;;;;6096279;23;20144;-43
2021/06/23 11:59:28;;;;;;;1999.90;999.90;;;15.30;99.90;;;;;;6096517;23;20152;-49
2021/06/23 12:01:55;;;;;;;1999.90;999.90;;;15.00;99.90;;;;;;6096088;23;20160;-45
2021/06/23 12:04:22;;;;;;;1999.90;999.90;;;15.00;99.90;;;;;;6096256;23;20152;-49
2021/06/23 12:06:49;;;;;;;1999.90;999.90;;;15.00;99.90;;;;;;6095890;23;20171;-45
2021/06/23 12:09:16;;;;;;;1999.90;999.90;;;15.10;99.90;;;;;;6096195;23;20154;-53
2021/06/23 12:11:43;;;;;;;1999.90;999.90;;;15.60;99.90;;;;;;6095561;23;20185;-47
2021/06/23 12:14:10;;;;;;;1999.90;999.90;;;15.70;99.90;;;;;;6095855;23;20486;-45
2021/06/23 12:16:37;;;;;;;1999.90;999.90;;;16.00;99.90;;;;;;6095480;23;20156;-43
2021/06/23 12:19:04;;;;;;;1999.90;999.90;;;16.10;99.90;;;;;;6095380;23;20151;-44
2021/06/23 12:21:31;;;;;;;1999.90;999.90;;;16.30;99.90;;;;;;6095796;23;20156;-48
2021/06/23 12:23:57;;;;;;;1999.90;999.90;;;16.20;99.90;;;;;;6096246;23;20155;-46